createdAt,value
2023-03-22T00:01:28.801Z,75.22
2023-03-22T00:03:56.472Z,75.16
2023-03-22T00:06:24.890Z,75.33
2023-03-22T00:08:53.421Z,75.27
2023-03-22T00:11:24.240Z,75.31
2023-03-22T00:13:52.765Z,75.53
2023-03-22T00:16:21.920Z,75.38
2023-03-22T00:18:49.413Z,75.23
2023-03-22T00:21:17.551Z,75.55
2023-03-22T00:23:45.508Z,75.52
2023-03-22T00:26:14.917Z,75.22
2023-03-22T00:28:43.865Z,75.09
2023-03-22T00:31:11.371Z,75.10
2023-03-22T00:33:38.988Z,74.83
2023-03-22T00:36:12.101Z,75.00
2023-03-22T00:38:42.842Z,74.97
2023-03-22T00:41:20.865Z,74.90
2023-03-22T00:43:50.382Z,74.93
2023-03-22T00:46:21.088Z,74.79
2023-03-22T00:48:49.711Z,74.64
2023-03-22T00:51:18.098Z,74.50
2023-03-22T00:53:45.870Z,74.52
2023-03-22T00:56:16.641Z,74.55
2023-03-22T00:58:49.677Z,74.16
2023-03-22T01:01:17.553Z,73.97
2023-03-22T01:03:45.503Z,73.85
2023-03-22T01:06:16.610Z,73.86
2023-03-22T01:08:44.452Z,73.68
2023-03-22T01:11:12.434Z,73.88
2023-03-22T01:13:41.856Z,73.68
2023-03-22T01:16:10.590Z,73.85
2023-03-22T01:18:38.246Z,73.90
2023-03-22T01:21:06.661Z,73.95
2023-03-22T01:23:34.845Z,73.95
2023-03-22T01:26:02.934Z,73.80
2023-03-22T01:28:30.760Z,73.90
2023-03-22T01:31:02.618Z,73.86
2023-03-22T01:33:31.037Z,73.93
2023-03-22T01:35:59.030Z,73.77
2023-03-22T01:38:27.117Z,73.73
2023-03-22T01:40:58.802Z,73.64
2023-03-22T01:43:28.209Z,73.43
2023-03-22T01:45:57.930Z,73.24
2023-03-22T01:48:34.990Z,73.09
2023-03-22T01:51:29.282Z,72.99
2023-03-22T01:54:32.986Z,73.05
2023-03-22T01:57:03.973Z,72.98
2023-03-22T01:59:41.755Z,72.79
2023-03-22T02:02:31.001Z,72.72
2023-03-22T02:05:09.818Z,72.76
2023-03-22T02:07:38.267Z,72.78
2023-03-22T02:10:19.497Z,72.80
2023-03-22T02:13:29.744Z,72.81
2023-03-22T02:16:23.050Z,72.86
2023-03-22T02:19:29.307Z,72.89
2023-03-22T02:22:39.431Z,72.89
2023-03-22T02:25:28.505Z,72.74
2023-03-22T02:28:20.709Z,72.97
2023-03-22T02:31:06.147Z,72.82
2023-03-22T02:34:08.210Z,72.98
2023-03-22T02:37:06.478Z,73.17
2023-03-22T02:40:07.510Z,73.19
2023-03-22T02:42:59.083Z,73.28
2023-03-22T02:45:43.750Z,73.42
2023-03-22T02:48:48.475Z,73.64
2023-03-22T02:51:24.690Z,73.68
2023-03-22T02:54:06.644Z,73.57
2023-03-22T02:56:39.446Z,73.46
2023-03-22T02:59:12.510Z,73.49
2023-03-22T03:01:52.292Z,73.14
2023-03-22T03:04:27.619Z,73.15
2023-03-22T03:07:04.452Z,73.26
2023-03-22T03:09:33.874Z,73.22
2023-03-22T03:12:01.313Z,73.29
2023-03-22T03:14:33.184Z,73.21
2023-03-22T03:17:38.129Z,73.28
2023-03-22T03:20:14.962Z,73.41
2023-03-22T03:22:55.008Z,73.47
2023-03-22T03:25:43.622Z,73.55
2023-03-22T03:28:23.031Z,73.66
2023-03-22T03:31:03.058Z,73.53
2023-03-22T03:33:35.704Z,73.39
2023-03-22T03:36:18.465Z,73.29
2023-03-22T03:38:52.320Z,73.24
2023-03-22T03:41:29.019Z,73.32
2023-03-22T03:43:58.822Z,73.43
2023-03-22T03:46:29.299Z,73.53
2023-03-22T03:48:58.796Z,73.58
2023-03-22T03:51:28.267Z,73.73
2023-03-22T03:53:55.821Z,73.98
2023-03-22T03:56:23.730Z,73.98
2023-03-22T03:58:52.009Z,74.07
2023-03-22T04:01:20.774Z,74.13
2023-03-22T04:04:03.536Z,74.25
2023-03-22T04:06:39.610Z,74.37
2023-03-22T04:09:12.094Z,74.29
2023-03-22T04:11:44.815Z,74.44
2023-03-22T04:14:14.272Z,74.32
2023-03-22T04:16:41.820Z,74.45
2023-03-22T04:19:13.390Z,74.43
2023-03-22T04:21:40.910Z,74.52
2023-03-22T04:24:10.456Z,74.53
2023-03-22T04:26:42.276Z,74.55
2023-03-22T04:29:23.014Z,74.59
2023-03-22T04:31:54.874Z,74.58
2023-03-22T04:34:43.402Z,74.63
2023-03-22T04:37:19.715Z,74.97
2023-03-22T04:40:09.258Z,74.75
2023-03-22T04:42:45.797Z,74.99
2023-03-22T04:45:18.750Z,75.08
2023-03-22T04:47:52.601Z,75.07
2023-03-22T04:50:20.017Z,74.75
2023-03-22T04:52:52.071Z,74.42
2023-03-22T04:55:19.944Z,74.03
2023-03-22T04:57:47.489Z,73.60
2023-03-22T05:00:15.491Z,73.44
2023-03-22T05:02:44.276Z,73.16
2023-03-22T05:05:20.906Z,72.97
2023-03-22T05:07:49.837Z,72.79
2023-03-22T05:10:17.487Z,72.80
2023-03-22T05:12:45.360Z,72.55
2023-03-22T05:15:33.854Z,72.14
2023-03-22T05:18:03.920Z,71.55
2023-03-22T05:20:31.380Z,70.58
2023-03-22T05:23:13.556Z,69.49
2023-03-22T05:25:45.265Z,68.52
2023-03-22T05:28:19.609Z,66.90
2023-03-22T05:31:05.622Z,66.56
2023-03-22T05:33:42.805Z,66.40
2023-03-22T05:36:13.904Z,66.38
2023-03-22T05:39:00.438Z,66.36
2023-03-22T05:41:27.963Z,66.41
2023-03-22T05:43:55.475Z,66.34
2023-03-22T05:46:22.892Z,66.67
2023-03-22T05:49:13.219Z,62.55
2023-03-22T05:51:42.683Z,54.75
2023-03-22T05:54:12.795Z,50.14
2023-03-22T05:56:47.398Z,47.53
2023-03-22T05:59:15.630Z,45.25
2023-03-22T06:01:43.091Z,44.24
2023-03-22T06:04:23.578Z,46.97
2023-03-22T06:07:11.699Z,47.97
2023-03-22T06:09:39.498Z,49.29
2023-03-22T06:12:12.129Z,46.60
2023-03-22T06:14:40.788Z,42.51
2023-03-22T06:17:22.664Z,41.17
2023-03-22T06:19:53.040Z,39.12
2023-03-22T06:22:21.829Z,38.50
2023-03-22T06:24:50.889Z,37.88
2023-03-22T06:27:25.933Z,37.39
2023-03-22T06:29:54.886Z,37.85
2023-03-22T06:32:26.708Z,37.93
2023-03-22T06:34:55.845Z,36.30
2023-03-22T06:37:25.319Z,35.12
2023-03-22T06:39:53.874Z,35.62
2023-03-22T06:42:24.597Z,35.29
2023-03-22T06:45:01.989Z,33.89
2023-03-22T06:47:33.587Z,32.44
2023-03-22T06:50:15.997Z,31.71
2023-03-22T06:53:01.370Z,31.18
2023-03-22T06:55:33.187Z,30.96
2023-03-22T06:58:02.291Z,30.64
2023-03-22T07:00:30.861Z,30.39
2023-03-22T07:02:59.913Z,30.57
2023-03-22T07:06:04.991Z,30.28
2023-03-22T07:08:37.080Z,30.56
2023-03-22T07:11:06.669Z,31.84
2023-03-22T07:13:34.810Z,30.20
2023-03-22T07:16:08.448Z,30.61
2023-03-22T07:18:40.676Z,28.66
2023-03-22T07:21:08.544Z,29.09
2023-03-22T07:23:38.638Z,29.31
2023-03-22T07:26:10.791Z,30.03
2023-03-22T07:28:41.608Z,29.26
2023-03-22T07:31:13.542Z,28.95
2023-03-22T07:34:01.530Z,28.45
2023-03-22T07:36:32.969Z,29.18
2023-03-22T07:39:02.030Z,28.61
2023-03-22T07:41:33.449Z,28.62
2023-03-22T07:44:19.198Z,28.56
2023-03-22T07:47:05.489Z,27.33
2023-03-22T07:49:40.156Z,28.28
2023-03-22T07:52:15.971Z,27.43
2023-03-22T07:54:43.694Z,27.90
2023-03-22T07:57:11.118Z,28.56
2023-03-22T07:59:47.943Z,29.66
2023-03-22T08:02:16.290Z,29.55
2023-03-22T08:04:55.022Z,29.61
2023-03-22T08:07:38.081Z,29.04
2023-03-22T08:10:06.298Z,29.64
2023-03-22T08:12:36.595Z,29.87
2023-03-22T08:15:14.464Z,29.72
2023-03-22T08:17:43.109Z,28.97
2023-03-22T08:20:18.489Z,32.07
2023-03-22T08:22:51.556Z,34.40
2023-03-22T08:25:29.573Z,30.27
2023-03-22T08:28:05.715Z,30.10
2023-03-22T08:30:33.133Z,30.97
2023-03-22T08:33:00.675Z,31.63
2023-03-22T08:35:28.103Z,32.70
2023-03-22T08:37:56.898Z,33.56
2023-03-22T08:40:30.414Z,35.14
2023-03-22T08:43:01.524Z,38.08
2023-03-22T08:45:30.427Z,39.46
2023-03-22T08:48:06.318Z,38.18
2023-03-22T08:50:47.669Z,38.98
2023-03-22T08:53:24.102Z,40.67
2023-03-22T08:56:02.278Z,40.71
2023-03-22T08:59:01.193Z,39.11
2023-03-22T09:02:01.765Z,38.45
2023-03-22T09:04:29.508Z,37.43
2023-03-22T09:06:57.655Z,38.48
2023-03-22T09:09:25.107Z,38.14
2023-03-22T09:11:54.842Z,37.09
2023-03-22T09:14:22.244Z,37.50
2023-03-22T09:16:52.159Z,38.34
2023-03-22T09:19:20.813Z,38.15
2023-03-22T09:21:49.967Z,37.81
2023-03-22T09:24:27.570Z,37.64
2023-03-22T09:26:58.622Z,39.18
2023-03-22T09:29:26.238Z,37.52
2023-03-22T09:31:53.755Z,38.66
2023-03-22T09:34:27.128Z,37.95
2023-03-22T09:36:57.509Z,37.59
2023-03-22T09:39:29.981Z,39.62
2023-03-22T09:42:05.563Z,41.36
2023-03-22T09:44:45.344Z,41.62
2023-03-22T09:47:44.214Z,41.78
2023-03-22T09:50:31.369Z,40.92
2023-03-22T09:53:00.777Z,40.91
2023-03-22T09:55:48.704Z,40.63
2023-03-22T09:58:27.885Z,40.45
2023-03-22T10:01:02.632Z,41.52
2023-03-22T10:04:11.938Z,40.17
2023-03-22T10:06:45.609Z,40.04
2023-03-22T10:09:41.982Z,38.99
2023-03-22T10:12:18.210Z,38.91
2023-03-22T10:15:06.124Z,37.36
2023-03-22T10:17:36.451Z,32.98
2023-03-22T10:20:31.338Z,33.74
2023-03-22T10:23:03.192Z,32.35
2023-03-22T10:25:38.592Z,32.64
2023-03-22T10:28:34.748Z,31.92
2023-03-22T10:31:05.229Z,33.44
2023-03-22T10:33:43.002Z,34.92
2023-03-22T10:36:16.516Z,35.95
2023-03-22T10:38:57.858Z,36.96
2023-03-22T10:41:27.245Z,38.63
2023-03-22T10:44:01.468Z,37.99
2023-03-22T10:46:39.176Z,38.26
2023-03-22T10:49:16.275Z,38.75
2023-03-22T10:51:50.936Z,39.35
2023-03-22T10:54:21.553Z,37.19
2023-03-22T10:56:48.948Z,36.92
2023-03-22T10:59:51.909Z,34.63
2023-03-22T11:02:32.700Z,31.42
2023-03-22T11:05:05.877Z,32.85
2023-03-22T11:07:42.860Z,34.18
2023-03-22T11:10:10.634Z,33.40
2023-03-22T11:12:48.117Z,35.80
2023-03-22T11:15:38.929Z,35.98
2023-03-22T11:18:16.606Z,34.23
2023-03-22T11:21:12.440Z,34.24
2023-03-22T11:24:05.433Z,32.52
2023-03-22T11:26:39.207Z,30.60
2023-03-22T11:29:19.132Z,32.88
2023-03-22T11:32:00.399Z,34.53
2023-03-22T11:34:31.739Z,35.45
2023-03-22T11:37:07.650Z,36.02
2023-03-22T11:39:35.038Z,36.65
2023-03-22T11:42:06.397Z,37.64
2023-03-22T11:44:37.883Z,39.34
2023-03-22T11:47:11.697Z,38.82
2023-03-22T11:49:50.521Z,37.72
2023-03-22T11:52:23.607Z,36.32
2023-03-22T11:54:52.335Z,36.02
2023-03-22T11:57:29.684Z,36.92
2023-03-22T12:00:20.547Z,36.04
2023-03-22T12:02:59.228Z,37.04
2023-03-22T12:05:32.015Z,35.37
2023-03-22T12:08:44.990Z,35.20
2023-03-22T12:11:28.256Z,36.24
2023-03-22T12:14:16.297Z,36.97
2023-03-22T12:16:57.383Z,36.92
2023-03-22T12:19:33.392Z,36.84
2023-03-22T12:22:01.213Z,37.65
2023-03-22T12:24:32.379Z,37.18
2023-03-22T12:27:47.712Z,37.24
2023-03-22T12:30:22.868Z,36.18
2023-03-22T12:32:58.680Z,36.81
2023-03-22T12:35:33.320Z,35.11
2023-03-22T12:38:39.252Z,36.11
2023-03-22T12:41:25.346Z,36.02
2023-03-22T12:43:58.866Z,35.83
2023-03-22T12:46:53.340Z,36.38
2023-03-22T12:49:36.067Z,34.99
2023-03-22T12:52:23.441Z,35.52
2023-03-22T12:54:53.465Z,36.00
2023-03-22T12:57:21.186Z,35.16
2023-03-22T12:59:55.249Z,35.16
2023-03-22T13:02:32.701Z,35.35
2023-03-22T13:05:06.758Z,35.27
2023-03-22T13:07:47.688Z,35.00
2023-03-22T13:10:42.336Z,35.56
2023-03-22T13:13:12.884Z,36.81
2023-03-22T13:16:14.658Z,36.92
2023-03-22T13:18:45.290Z,37.10
2023-03-22T13:21:26.505Z,37.22
2023-03-22T13:23:53.960Z,37.00
2023-03-22T13:26:34.999Z,36.26
2023-03-22T13:29:15.400Z,36.72
2023-03-22T13:31:53.704Z,36.70
2023-03-22T13:34:40.893Z,36.26
2023-03-22T13:37:17.756Z,36.16
2023-03-22T13:39:53.102Z,37.45
2023-03-22T13:42:29.635Z,37.11
2023-03-22T13:45:03.955Z,37.45
2023-03-22T13:47:46.837Z,37.53
2023-03-22T13:50:28.155Z,37.84
2023-03-22T13:53:08.094Z,38.76
2023-03-22T13:56:00.890Z,39.43
2023-03-22T13:58:48.243Z,39.96
2023-03-22T14:01:28.093Z,40.13
2023-03-22T14:04:02.077Z,39.57
2023-03-22T14:06:35.324Z,39.55
2023-03-22T14:09:16.316Z,39.63
2023-03-22T14:11:57.389Z,39.84
2023-03-22T14:14:32.596Z,39.99
2023-03-22T14:17:20.391Z,39.80
2023-03-22T14:19:51.735Z,39.48
